createdAt,value
2017-07-29T00:02:18.360Z,17.64
2017-07-29T00:04:45.969Z,17.66
2017-07-29T00:07:13.551Z,17.64
2017-07-29T00:09:41.183Z,17.61
2017-07-29T00:12:08.807Z,17.58
2017-07-29T00:14:36.454Z,17.56
2017-07-29T00:17:04.058Z,17.55
2017-07-29T00:19:31.708Z,17.54
2017-07-29T00:21:59.296Z,17.53
2017-07-29T00:24:26.940Z,17.52
2017-07-29T00:26:54.528Z,17.52
2017-07-29T00:29:22.157Z,17.49
2017-07-29T00:31:49.774Z,17.51
2017-07-29T00:34:17.493Z,17.54
2017-07-29T00:36:45.102Z,17.54
2017-07-29T00:39:12.760Z,17.57
2017-07-29T00:41:40.359Z,17.57
2017-07-29T00:44:07.984Z,17.53
2017-07-29T00:46:35.611Z,17.48
2017-07-29T00:49:03.267Z,17.43
2017-07-29T00:51:30.871Z,17.41
2017-07-29T00:53:58.494Z,17.37
2017-07-29T00:56:26.085Z,17.38
2017-07-29T00:58:53.885Z,17.36
2017-07-29T01:01:21.560Z,17.33
2017-07-29T01:03:49.133Z,17.32
2017-07-29T01:06:16.748Z,17.33
2017-07-29T01:08:44.365Z,17.33
2017-07-29T01:11:11.990Z,17.34
2017-07-29T01:13:39.731Z,17.34
2017-07-29T01:16:07.340Z,17.33
2017-07-29T01:18:34.953Z,17.32
2017-07-29T01:21:02.744Z,17.31
2017-07-29T01:23:30.344Z,17.31
2017-07-29T01:25:57.970Z,17.30
2017-07-29T01:28:25.591Z,17.30
2017-07-29T01:30:53.228Z,17.26
2017-07-29T01:33:20.826Z,17.22
2017-07-29T01:35:48.438Z,17.19
2017-07-29T01:38:16.042Z,17.18
2017-07-29T01:40:43.651Z,17.17
2017-07-29T01:43:11.249Z,17.18
2017-07-29T01:45:39.006Z,17.17
2017-07-29T01:48:06.606Z,17.14
2017-07-29T01:50:34.248Z,17.14
2017-07-29T01:53:01.851Z,17.12
2017-07-29T01:55:29.470Z,17.11
2017-07-29T01:57:57.067Z,17.11
2017-07-29T02:00:24.836Z,17.10
2017-07-29T02:02:52.427Z,17.09
2017-07-29T02:05:20.045Z,17.04
2017-07-29T02:07:47.641Z,17.06
2017-07-29T02:10:15.292Z,17.04
2017-07-29T02:12:42.913Z,17.06
2017-07-29T02:15:10.519Z,17.05
2017-07-29T02:17:38.182Z,17.06
2017-07-29T02:20:05.796Z,17.05
2017-07-29T02:22:33.400Z,17.04
2017-07-29T02:25:01.002Z,17.05
2017-07-29T02:27:28.773Z,17.05
2017-07-29T02:29:56.607Z,17.07
2017-07-29T02:32:24.236Z,17.07
2017-07-29T02:34:51.852Z,17.06
2017-07-29T02:37:19.623Z,17.06
2017-07-29T02:39:48.050Z,17.06
2017-07-29T02:42:15.661Z,17.06
2017-07-29T02:44:43.267Z,17.05
2017-07-29T02:47:10.884Z,17.05
2017-07-29T02:49:38.480Z,17.04
2017-07-29T02:52:06.124Z,16.98
2017-07-29T02:54:33.709Z,16.97
2017-07-29T02:57:01.319Z,16.97
2017-07-29T02:59:28.912Z,16.98
2017-07-29T03:01:56.539Z,16.98
2017-07-29T03:04:24.138Z,16.98
2017-07-29T03:06:51.837Z,16.98
2017-07-29T03:09:19.423Z,16.98
2017-07-29T03:11:47.108Z,16.96
2017-07-29T03:14:14.700Z,16.95
2017-07-29T03:16:42.386Z,16.92
2017-07-29T03:19:10.000Z,16.90
2017-07-29T03:21:37.714Z,16.87
2017-07-29T03:24:05.433Z,16.84
2017-07-29T03:26:33.039Z,16.79
2017-07-29T03:29:00.652Z,16.77
2017-07-29T03:31:28.274Z,16.74
2017-07-29T03:33:55.878Z,16.72
2017-07-29T03:36:23.496Z,16.70
2017-07-29T03:38:51.101Z,16.67
2017-07-29T03:41:18.722Z,16.63
2017-07-29T03:43:46.313Z,16.61
2017-07-29T03:46:13.954Z,16.59
2017-07-29T03:48:41.555Z,16.56
2017-07-29T03:51:09.183Z,16.54
2017-07-29T03:53:36.771Z,16.52
2017-07-29T03:56:04.712Z,16.49
2017-07-29T03:58:32.308Z,16.44
2017-07-29T04:00:59.917Z,16.45
2017-07-29T04:03:27.524Z,16.41
2017-07-29T04:05:55.132Z,16.42
2017-07-29T04:08:22.763Z,16.40
2017-07-29T04:10:50.484Z,16.39
2017-07-29T04:13:18.103Z,16.36
2017-07-29T04:15:45.700Z,16.34
2017-07-29T04:18:13.504Z,16.34
2017-07-29T04:20:41.081Z,16.35
2017-07-29T04:23:08.691Z,16.36
2017-07-29T04:25:36.281Z,16.37
2017-07-29T04:28:03.885Z,16.39
2017-07-29T04:30:31.468Z,16.40
2017-07-29T04:32:59.108Z,16.40
2017-07-29T04:35:26.691Z,16.40
2017-07-29T04:37:54.305Z,16.44
2017-07-29T04:40:21.907Z,16.46
2017-07-29T04:42:49.546Z,16.48
2017-07-29T04:45:17.152Z,16.50
2017-07-29T04:47:44.786Z,16.49
2017-07-29T04:50:12.378Z,16.50
2017-07-29T04:52:40.012Z,16.52
2017-07-29T04:55:07.614Z,16.55
2017-07-29T04:57:35.240Z,16.57
2017-07-29T05:00:02.855Z,16.59
2017-07-29T05:02:30.486Z,16.63
2017-07-29T05:04:58.090Z,16.63
2017-07-29T05:07:25.724Z,16.67
2017-07-29T05:09:53.321Z,16.70
2017-07-29T05:12:20.943Z,16.75
2017-07-29T05:14:48.554Z,16.78
2017-07-29T05:17:16.185Z,16.78
2017-07-29T05:19:43.806Z,16.82
2017-07-29T05:22:11.423Z,16.86
2017-07-29T05:24:39.108Z,16.87
2017-07-29T05:27:06.713Z,16.92
2017-07-29T05:29:34.298Z,16.93
2017-07-29T05:32:01.900Z,16.96
2017-07-29T05:34:29.533Z,16.98
2017-07-29T05:36:57.112Z,16.99
2017-07-29T05:39:24.739Z,17.00
2017-07-29T05:41:52.324Z,17.04
2017-07-29T05:44:20.076Z,17.07
2017-07-29T05:46:47.667Z,17.12
2017-07-29T05:49:15.295Z,17.15
2017-07-29T05:51:43.005Z,17.17
2017-07-29T05:54:10.635Z,17.20
2017-07-29T05:56:38.228Z,17.24
2017-07-29T05:59:05.835Z,17.29
2017-07-29T06:01:33.453Z,17.34
2017-07-29T06:04:01.064Z,17.39
2017-07-29T06:06:28.669Z,17.42
2017-07-29T06:08:56.309Z,17.48
2017-07-29T06:11:23.914Z,17.55
2017-07-29T06:13:51.528Z,17.63
2017-07-29T06:16:19.101Z,17.67
2017-07-29T06:18:46.834Z,17.73
2017-07-29T06:21:14.427Z,17.81
2017-07-29T06:23:42.040Z,17.89
2017-07-29T06:26:09.633Z,17.94
2017-07-29T06:28:37.498Z,18.01
2017-07-29T06:31:05.101Z,18.06
2017-07-29T06:33:32.784Z,18.11
2017-07-29T06:36:00.382Z,18.17
2017-07-29T06:38:27.999Z,18.23
2017-07-29T06:40:55.595Z,18.28
2017-07-29T06:43:23.202Z,18.35
2017-07-29T06:45:50.810Z,18.43
2017-07-29T06:48:18.418Z,18.49
2017-07-29T06:50:46.011Z,18.56
2017-07-29T06:53:13.653Z,18.66
2017-07-29T06:55:41.262Z,18.71
2017-07-29T06:58:08.863Z,18.80
2017-07-29T07:00:36.545Z,18.90
2017-07-29T07:03:04.448Z,19.01
2017-07-29T07:05:32.070Z,19.11
2017-07-29T07:07:59.757Z,19.20
2017-07-29T07:13:01.371Z,19.38
2017-07-29T07:15:29.098Z,19.48
2017-07-29T07:17:56.709Z,19.58
2017-07-29T07:20:24.333Z,19.69
2017-07-29T07:22:51.934Z,19.75
2017-07-29T07:25:20.006Z,19.81
2017-07-29T07:27:47.721Z,19.90
2017-07-29T07:30:15.351Z,20.00
2017-07-29T07:32:42.947Z,20.12
2017-07-29T07:35:10.701Z,20.23
2017-07-29T07:37:38.338Z,20.28
2017-07-29T07:40:06.111Z,20.35
2017-07-29T07:42:33.755Z,20.39
2017-07-29T07:45:01.377Z,20.49
2017-07-29T07:47:28.987Z,20.53
2017-07-29T07:49:56.616Z,20.58
2017-07-29T07:52:24.216Z,20.66
2017-07-29T07:54:51.851Z,20.76
2017-07-29T07:57:19.447Z,20.84
2017-07-29T07:59:47.043Z,20.95
2017-07-29T08:02:14.619Z,21.04
2017-07-29T08:04:42.210Z,21.16
2017-07-29T08:07:09.921Z,21.23
2017-07-29T08:09:37.538Z,21.30
2017-07-29T08:12:05.111Z,21.38
2017-07-29T08:14:32.854Z,21.44
2017-07-29T08:17:00.425Z,21.49
2017-07-29T08:19:28.011Z,21.46
2017-07-29T08:21:55.609Z,21.53
2017-07-29T08:24:23.603Z,21.58
2017-07-29T08:26:51.189Z,21.65
2017-07-29T08:29:18.757Z,21.71
2017-07-29T08:31:46.357Z,21.81
2017-07-29T08:34:13.947Z,21.91
2017-07-29T08:36:41.549Z,22.04
2017-07-29T08:39:09.133Z,22.15
2017-07-29T08:41:36.734Z,22.26
2017-07-29T08:44:04.307Z,22.32
2017-07-29T08:46:31.886Z,22.37
2017-07-29T08:48:59.496Z,22.33
2017-07-29T08:51:27.090Z,22.26
2017-07-29T08:53:54.692Z,22.30
2017-07-29T08:56:22.315Z,22.39
2017-07-29T08:58:49.891Z,22.44
2017-07-29T09:01:17.521Z,22.52
2017-07-29T09:03:45.085Z,22.71
2017-07-29T09:06:12.676Z,22.84
2017-07-29T09:08:40.253Z,22.91
2017-07-29T09:11:07.885Z,22.91
2017-07-29T09:13:35.459Z,22.98
2017-07-29T09:16:03.054Z,23.04
2017-07-29T09:18:30.670Z,23.14
2017-07-29T09:20:58.287Z,23.21
2017-07-29T09:23:25.866Z,23.31
2017-07-29T09:25:53.470Z,23.37
2017-07-29T09:28:21.053Z,23.39
2017-07-29T09:30:48.645Z,23.46
2017-07-29T09:33:16.221Z,23.59
2017-07-29T09:35:43.835Z,23.65
2017-07-29T09:38:11.412Z,23.73
2017-07-29T09:40:39.022Z,24.01
2017-07-29T09:43:06.596Z,24.12
2017-07-29T09:45:34.209Z,24.23
2017-07-29T09:48:01.874Z,24.28
2017-07-29T09:50:29.464Z,24.47
2017-07-29T09:52:57.454Z,24.64
2017-07-29T09:55:25.027Z,24.73
2017-07-29T09:57:52.616Z,24.77
2017-07-29T10:00:20.287Z,24.94
2017-07-29T10:02:47.899Z,24.99
2017-07-29T10:05:15.480Z,24.97
2017-07-29T10:07:43.088Z,24.89
2017-07-29T10:10:10.706Z,24.87
2017-07-29T10:12:38.309Z,24.85
2017-07-29T10:15:05.921Z,24.79
2017-07-29T10:17:33.526Z,24.79
2017-07-29T10:20:01.210Z,24.86
2017-07-29T10:22:28.817Z,24.99
2017-07-29T10:24:56.429Z,25.15
2017-07-29T10:27:24.062Z,25.35
2017-07-29T10:29:51.638Z,25.49
2017-07-29T10:32:19.229Z,25.60
2017-07-29T10:34:46.822Z,25.67
2017-07-29T10:37:14.427Z,25.66
2017-07-29T10:39:42.130Z,25.54
2017-07-29T10:42:09.728Z,25.40
2017-07-29T10:44:37.321Z,25.36
2017-07-29T10:47:05.157Z,25.44
2017-07-29T10:49:32.754Z,25.51
2017-07-29T10:52:00.354Z,25.46
2017-07-29T10:54:27.925Z,25.63
2017-07-29T10:56:55.523Z,25.66
2017-07-29T10:59:23.102Z,25.70
2017-07-29T11:01:50.718Z,25.67
2017-07-29T11:04:18.314Z,25.54
2017-07-29T11:06:45.894Z,25.45
2017-07-29T11:09:13.551Z,25.43
2017-07-29T11:11:41.187Z,25.52
2017-07-29T11:14:08.833Z,25.57
2017-07-29T11:16:36.475Z,25.63
2017-07-29T11:19:04.055Z,25.61
2017-07-29T11:21:31.655Z,25.61
2017-07-29T11:23:59.267Z,25.60
2017-07-29T11:26:26.876Z,25.51
2017-07-29T11:28:54.462Z,25.35
2017-07-29T11:31:22.032Z,25.25
2017-07-29T11:33:49.639Z,25.15
2017-07-29T11:36:17.248Z,25.26
2017-07-29T11:38:44.865Z,25.39
2017-07-29T11:41:12.454Z,25.38
2017-07-29T11:43:40.053Z,25.38
2017-07-29T11:46:07.658Z,25.44
2017-07-29T11:48:35.258Z,25.49
2017-07-29T11:51:02.842Z,25.56
2017-07-29T11:53:30.535Z,25.60
2017-07-29T11:55:58.135Z,25.65
2017-07-29T11:58:25.750Z,25.76
2017-07-29T12:00:53.356Z,25.89
2017-07-29T12:03:20.958Z,25.81
2017-07-29T12:05:48.540Z,25.83
2017-07-29T12:08:16.145Z,25.98
2017-07-29T12:10:43.731Z,26.03
2017-07-29T12:13:11.360Z,26.00
2017-07-29T12:15:38.940Z,25.92
2017-07-29T12:18:06.812Z,25.94
2017-07-29T12:20:34.406Z,25.98
2017-07-29T12:23:01.998Z,25.98
2017-07-29T12:25:29.571Z,26.03
2017-07-29T12:27:57.197Z,25.98
2017-07-29T12:30:24.786Z,25.96
2017-07-29T12:32:52.408Z,26.07
2017-07-29T12:35:19.989Z,26.26
2017-07-29T12:37:47.862Z,26.42
2017-07-29T12:40:15.441Z,26.51
2017-07-29T12:42:43.032Z,26.62
2017-07-29T12:45:10.650Z,26.79
2017-07-29T12:47:38.263Z,26.88
2017-07-29T12:50:05.880Z,26.86
2017-07-29T12:52:33.474Z,26.85
2017-07-29T12:55:01.080Z,26.78
2017-07-29T12:57:28.736Z,26.72
2017-07-29T12:59:56.400Z,26.75
2017-07-29T13:02:23.981Z,26.81
2017-07-29T13:04:51.599Z,26.92
2017-07-29T13:07:19.322Z,26.98
2017-07-29T13:09:46.958Z,27.09
2017-07-29T13:12:14.545Z,27.11
2017-07-29T13:14:42.159Z,27.22
2017-07-29T13:17:09.749Z,27.22
2017-07-29T13:19:37.377Z,27.22
2017-07-29T13:22:05.048Z,27.19
2017-07-29T13:24:32.679Z,27.28
2017-07-29T13:27:00.249Z,27.32
2017-07-29T13:29:27.877Z,27.37
2017-07-29T13:31:55.527Z,27.46
2017-07-29T13:34:23.177Z,27.60
2017-07-29T13:36:50.749Z,27.70
2017-07-29T13:39:18.670Z,27.83
2017-07-29T13:41:46.266Z,27.86
2017-07-29T13:44:13.855Z,27.92
2017-07-29T13:46:41.827Z,28.04
2017-07-29T13:49:09.411Z,28.10
2017-07-29T13:51:37.006Z,28.23
2017-07-29T13:54:04.610Z,28.38
2017-07-29T13:56:32.215Z,28.48
2017-07-29T13:58:59.828Z,28.57
2017-07-29T14:01:27.452Z,28.66
2017-07-29T14:03:55.057Z,28.86
2017-07-29T14:06:22.663Z,29.16
2017-07-29T14:08:50.270Z,29.37
2017-07-29T14:11:17.861Z,29.50
2017-07-29T14:13:45.435Z,29.59
2017-07-29T14:16:13.390Z,29.65
2017-07-29T14:18:40.977Z,30.11
2017-07-29T14:21:08.614Z,30.22
2017-07-29T14:23:36.254Z,30.18
2017-07-29T14:26:03.835Z,30.49
2017-07-29T14:28:31.507Z,30.98
2017-07-29T14:30:59.075Z,31.52
2017-07-29T14:33:27.011Z,32.07
2017-07-29T14:35:54.648Z,32.49
2017-07-29T14:38:22.257Z,32.78
2017-07-29T14:40:49.865Z,33.06
2017-07-29T14:43:17.456Z,33.20
2017-07-29T14:45:45.062Z,33.28
2017-07-29T14:48:30.249Z,33.09
2017-07-29T14:50:58.157Z,32.82
2017-07-29T14:53:25.737Z,32.66
2017-07-29T14:55:53.334Z,32.39
2017-07-29T14:58:20.937Z,32.02
2017-07-29T15:00:48.529Z,31.62
2017-07-29T15:03:16.164Z,31.19
2017-07-29T15:05:43.749Z,30.85
2017-07-29T15:08:11.624Z,30.64
2017-07-29T15:10:39.227Z,30.79
2017-07-29T15:13:06.803Z,31.01
2017-07-29T15:15:34.413Z,31.10
2017-07-29T15:18:02.015Z,31.22
2017-07-29T15:20:29.624Z,31.31
2017-07-29T15:22:57.226Z,31.61
2017-07-29T15:25:24.845Z,32.20
2017-07-29T15:27:52.421Z,32.79
2017-07-29T15:30:20.022Z,32.74
2017-07-29T15:32:47.763Z,32.30
2017-07-29T15:35:15.688Z,32.43
2017-07-29T15:37:43.263Z,32.72
2017-07-29T15:40:10.853Z,32.87
2017-07-29T15:42:38.495Z,33.07
2017-07-29T15:45:06.588Z,33.30
2017-07-29T15:47:34.570Z,33.46
2017-07-29T15:50:02.834Z,33.47
2017-07-29T15:52:30.557Z,33.11
2017-07-29T15:54:58.183Z,32.42
2017-07-29T15:57:25.769Z,31.87
2017-07-29T15:59:53.496Z,31.54
2017-07-29T16:02:21.064Z,31.28
2017-07-29T16:04:48.693Z,31.06
2017-07-29T16:07:16.257Z,30.85
2017-07-29T16:09:44.273Z,30.66
2017-07-29T16:12:11.853Z,30.36
2017-07-29T16:14:39.459Z,30.09
2017-07-29T16:17:07.059Z,29.84
2017-07-29T16:19:34.637Z,29.55
2017-07-29T16:22:02.249Z,29.37
2017-07-29T16:24:29.836Z,29.15
2017-07-29T16:26:57.800Z,28.83
2017-07-29T16:29:25.380Z,28.57
2017-07-29T16:31:52.973Z,28.46
2017-07-29T16:34:20.574Z,28.37
2017-07-29T16:36:48.156Z,28.21
2017-07-29T16:39:15.755Z,28.09
2017-07-29T16:41:43.343Z,28.05
2017-07-29T16:44:11.325Z,28.00
2017-07-29T16:46:38.885Z,27.99
2017-07-29T16:49:06.478Z,27.91
2017-07-29T16:51:34.079Z,27.73
2017-07-29T16:54:01.694Z,27.69
2017-07-29T16:56:29.291Z,27.64
2017-07-29T16:58:56.874Z,27.59
2017-07-29T17:01:25.550Z,27.57
2017-07-29T17:03:53.118Z,27.52
2017-07-29T17:06:21.245Z,27.50
2017-07-29T17:08:48.820Z,27.48
2017-07-29T17:11:16.423Z,27.52
2017-07-29T17:13:44.146Z,27.58
2017-07-29T17:16:11.732Z,27.62
2017-07-29T17:18:39.322Z,27.49
2017-07-29T17:21:06.903Z,27.28
2017-07-29T17:23:34.851Z,27.15
2017-07-29T17:26:02.491Z,27.08
2017-07-29T17:28:30.072Z,27.04
2017-07-29T17:30:57.665Z,26.91
2017-07-29T17:33:25.275Z,26.72
2017-07-29T17:35:52.885Z,26.43
2017-07-29T17:38:20.466Z,26.20
2017-07-29T17:40:48.077Z,26.03
2017-07-29T17:43:15.693Z,25.94
2017-07-29T17:45:43.306Z,25.96
2017-07-29T17:48:11.013Z,25.96
2017-07-29T17:50:38.625Z,25.97
2017-07-29T17:53:06.230Z,26.00
2017-07-29T17:55:33.829Z,25.94
2017-07-29T17:58:01.841Z,25.91
2017-07-29T18:00:29.467Z,25.87
2017-07-29T18:02:57.078Z,25.81
2017-07-29T18:05:24.938Z,25.76
2017-07-29T18:07:52.507Z,25.67
2017-07-29T18:10:20.084Z,25.52
2017-07-29T18:12:47.675Z,25.48
2017-07-29T18:15:15.576Z,25.47
2017-07-29T18:17:43.193Z,25.42
2017-07-29T18:20:10.754Z,25.39
2017-07-29T18:22:38.337Z,25.35
2017-07-29T18:25:05.922Z,25.27
2017-07-29T18:27:33.533Z,25.22
2017-07-29T18:30:01.113Z,25.18
2017-07-29T18:32:28.861Z,25.13
2017-07-29T18:34:57.331Z,25.07
2017-07-29T18:37:25.358Z,25.04
2017-07-29T18:39:53.080Z,25.01
2017-07-29T18:42:20.831Z,24.96
2017-07-29T18:44:48.489Z,24.87
2017-07-29T18:47:16.826Z,24.79
2017-07-29T18:49:45.502Z,24.75
2017-07-29T18:52:13.111Z,24.72
2017-07-29T18:54:40.688Z,24.70
2017-07-29T18:57:08.324Z,24.66
2017-07-29T18:59:35.913Z,24.63
2017-07-29T19:02:03.610Z,24.59
2017-07-29T19:04:31.184Z,24.55
2017-07-29T19:06:59.141Z,24.52
2017-07-29T19:09:26.743Z,24.45
2017-07-29T19:11:54.405Z,24.38
2017-07-29T19:14:22.027Z,24.33
2017-07-29T19:16:49.617Z,24.27
2017-07-29T19:19:17.212Z,24.22
2017-07-29T19:21:44.832Z,24.15
2017-07-29T19:24:12.435Z,24.09
2017-07-29T19:26:40.025Z,24.04
2017-07-29T19:29:07.984Z,24.00
2017-07-29T19:31:35.555Z,23.94
2017-07-29T19:35:21.839Z,23.85
2017-07-29T19:37:49.449Z,23.80
2017-07-29T19:40:17.035Z,23.76
2017-07-29T19:42:45.480Z,23.70
2017-07-29T19:45:13.207Z,23.65
2017-07-29T19:47:40.829Z,23.60
2017-07-29T19:50:08.524Z,23.54
2017-07-29T19:52:36.473Z,23.51
2017-07-29T19:55:04.067Z,23.47
2017-07-29T19:57:31.662Z,23.42
2017-07-29T19:59:59.309Z,23.37
2017-07-29T20:02:27.017Z,23.34
2017-07-29T20:04:54.661Z,23.28
2017-07-29T20:07:22.290Z,23.19
2017-07-29T20:09:49.924Z,23.07
2017-07-29T20:12:17.518Z,22.95
2017-07-29T20:14:45.435Z,22.87
2017-07-29T20:17:13.043Z,22.79
2017-07-29T20:19:40.634Z,22.72
2017-07-29T20:22:08.370Z,22.63
2017-07-29T20:24:35.977Z,22.56
2017-07-29T20:28:51.343Z,22.44
2017-07-29T20:31:19.071Z,22.38
2017-07-29T20:33:46.673Z,22.30
2017-07-29T20:36:14.692Z,22.23
2017-07-29T20:38:42.471Z,22.17
2017-07-29T20:41:10.054Z,22.08
2017-07-29T20:43:37.631Z,21.97
2017-07-29T20:46:05.264Z,21.92
2017-07-29T20:48:33.021Z,21.86
2017-07-29T20:51:00.589Z,21.82
2017-07-29T20:53:28.527Z,21.78
2017-07-29T20:55:56.165Z,21.74
2017-07-29T20:58:23.764Z,21.71
2017-07-29T21:00:51.371Z,21.65
2017-07-29T21:03:19.039Z,21.60
2017-07-29T21:05:47.063Z,21.54
2017-07-29T21:08:14.661Z,21.46
2017-07-29T21:10:42.331Z,21.39
2017-07-29T21:13:09.938Z,21.32
2017-07-29T21:15:37.927Z,21.27
2017-07-29T21:18:05.531Z,21.21
2017-07-29T21:20:33.194Z,21.15
2017-07-29T21:23:00.834Z,21.10
2017-07-29T21:25:28.517Z,21.04
2017-07-29T21:27:56.136Z,20.99
2017-07-29T21:30:23.769Z,20.95
2017-07-29T21:32:51.724Z,20.93
2017-07-29T21:35:19.319Z,20.91
2017-07-29T22:38:18.540Z,20.23
2017-07-29T22:40:46.151Z,20.24
2017-07-29T22:43:14.083Z,20.25
2017-07-29T22:45:42.187Z,20.26
2017-07-29T22:48:09.761Z,20.27
2017-07-29T22:50:37.361Z,20.28
2017-07-29T22:53:05.623Z,20.26
2017-07-29T22:55:33.234Z,20.25
2017-07-29T22:58:00.864Z,20.23
2017-07-29T23:00:28.466Z,20.22
2017-07-29T23:02:56.395Z,20.20
2017-07-29T23:05:23.970Z,20.19
2017-07-29T23:07:51.581Z,20.14
2017-07-29T23:10:19.198Z,20.09
2017-07-29T23:12:46.815Z,20.04
2017-07-29T23:15:14.405Z,19.99
2017-07-29T23:17:42.138Z,19.91
2017-07-29T23:20:09.794Z,19.82
2017-07-29T23:22:37.416Z,19.75
2017-07-29T23:25:05.105Z,19.70
2017-07-29T23:27:32.732Z,19.66
2017-07-29T23:30:00.637Z,19.62
2017-07-29T23:32:28.219Z,19.59
2017-07-29T23:34:55.820Z,19.54
2017-07-29T23:37:23.431Z,19.51
2017-07-29T23:39:51.043Z,19.52
2017-07-29T23:42:19.093Z,19.55
2017-07-29T23:44:46.887Z,19.58
2017-07-29T23:47:14.519Z,19.59
2017-07-29T23:49:42.099Z,19.61
2017-07-29T23:52:10.029Z,19.64
2017-07-29T23:54:37.628Z,19.63
2017-07-29T23:57:05.220Z,19.58
2017-07-29T23:59:32.834Z,19.51
